sensor_id;sensor_type;location;lat;lon;timestamp;P1;durP1;ratioP1;P2;durP2;ratioP2
15841;SDS011;8021;48.022;11.812;2022-09-03T00:01:09;0.38;;;0.38;;
15841;SDS011;8021;48.022;11.812;2022-09-03T00:03:39;0.30;;;0.20;;
15841;SDS011;8021;48.022;11.812;2022-09-03T00:06:11;0.30;;;0.20;;
15841;SDS011;8021;48.022;11.812;2022-09-03T00:08:42;0.20;;;0.20;;
15841;SDS011;8021;48.022;11.812;2022-09-03T00:11:12;0.30;;;0.30;;
15841;SDS011;8021;48.022;11.812;2022-09-03T00:13:43;0.30;;;0.30;;
15841;SDS011;8021;48.022;11.812;2022-09-03T00:16:12;0.30;;;0.30;;
15841;SDS011;8021;48.022;11.812;2022-09-03T00:18:43;0.30;;;0.30;;
15841;SDS011;8021;48.022;11.812;2022-09-03T00:21:13;0.20;;;0.20;;
15841;SDS011;8021;48.022;11.812;2022-09-03T00:23:42;0.30;;;0.30;;
15841;SDS011;8021;48.022;11.812;2022-09-03T00:26:16;0.30;;;0.20;;
15841;SDS011;8021;48.022;11.812;2022-09-03T00:28:46;0.30;;;0.30;;
15841;SDS011;8021;48.022;11.812;2022-09-03T00:31:17;0.30;;;0.20;;
15841;SDS011;8021;48.022;11.812;2022-09-03T00:33:46;0.20;;;0.20;;
15841;SDS011;8021;48.022;11.812;2022-09-03T00:36:15;0.20;;;0.20;;
15841;SDS011;8021;48.022;11.812;2022-09-03T00:38:43;0.30;;;0.25;;
15841;SDS011;8021;48.022;11.812;2022-09-03T00:41:15;0.30;;;0.25;;
15841;SDS011;8021;48.022;11.812;2022-09-03T00:43:53;0.30;;;0.30;;
15841;SDS011;8021;48.022;11.812;2022-09-03T00:46:24;0.30;;;0.30;;
15841;SDS011;8021;48.022;11.812;2022-09-03T00:49:04;0.20;;;0.20;;
15841;SDS011;8021;48.022;11.812;2022-09-03T00:51:38;0.30;;;0.30;;
15841;SDS011;8021;48.022;11.812;2022-09-03T00:54:11;0.30;;;0.30;;
15841;SDS011;8021;48.022;11.812;2022-09-03T00:56:43;0.30;;;0.20;;
15841;SDS011;8021;48.022;11.812;2022-09-03T00:59:20;0.30;;;0.20;;
15841;SDS011;8021;48.022;11.812;2022-09-03T01:01:56;0.30;;;0.30;;
15841;SDS011;8021;48.022;11.812;2022-09-03T01:04:30;0.30;;;0.30;;
15841;SDS011;8021;48.022;11.812;2022-09-03T01:07:02;0.30;;;0.30;;
15841;SDS011;8021;48.022;11.812;2022-09-03T01:09:39;0.30;;;0.20;;
15841;SDS011;8021;48.022;11.812;2022-09-03T01:12:16;0.30;;;0.20;;
15841;SDS011;8021;48.022;11.812;2022-09-03T01:14:50;0.30;;;0.20;;
15841;SDS011;8021;48.022;11.812;2022-09-03T01:17:25;0.25;;;0.20;;
15841;SDS011;8021;48.022;11.812;2022-09-03T01:20:00;0.30;;;0.30;;
15841;SDS011;8021;48.022;11.812;2022-09-03T01:22:38;0.30;;;0.20;;
15841;SDS011;8021;48.022;11.812;2022-09-03T01:25:11;0.30;;;0.20;;
15841;SDS011;8021;48.022;11.812;2022-09-03T01:27:44;0.30;;;0.30;;
15841;SDS011;8021;48.022;11.812;2022-09-03T01:30:14;0.30;;;0.30;;
15841;SDS011;8021;48.022;11.812;2022-09-03T01:32:45;0.30;;;0.28;;
15841;SDS011;8021;48.022;11.812;2022-09-03T01:35:18;0.20;;;0.20;;
15841;SDS011;8021;48.022;11.812;2022-09-03T01:37:55;0.30;;;0.30;;
15841;SDS011;8021;48.022;11.812;2022-09-03T01:40:28;0.30;;;0.30;;
15841;SDS011;8021;48.022;11.812;2022-09-03T01:43:03;0.30;;;0.20;;
15841;SDS011;8021;48.022;11.812;2022-09-03T01:45:41;0.30;;;0.20;;
15841;SDS011;8021;48.022;11.812;2022-09-03T01:48:25;0.30;;;0.30;;
15841;SDS011;8021;48.022;11.812;2022-09-03T01:50:57;0.30;;;0.30;;
15841;SDS011;8021;48.022;11.812;2022-09-03T01:53:33;0.30;;;0.28;;
15841;SDS011;8021;48.022;11.812;2022-09-03T01:56:12;0.30;;;0.30;;
15841;SDS011;8021;48.022;11.812;2022-09-03T01:58:41;0.40;;;0.40;;
15841;SDS011;8021;48.022;11.812;2022-09-03T02:01:14;0.30;;;0.30;;
15841;SDS011;8021;48.022;11.812;2022-09-03T02:03:43;0.20;;;0.20;;
15841;SDS011;8021;48.022;11.812;2022-09-03T02:06:12;0.30;;;0.30;;
15841;SDS011;8021;48.022;11.812;2022-09-03T02:08:39;0.30;;;0.28;;
15841;SDS011;8021;48.022;11.812;2022-09-03T02:11:07;0.30;;;0.30;;
15841;SDS011;8021;48.022;11.812;2022-09-03T02:13:37;0.30;;;0.30;;
15841;SDS011;8021;48.022;11.812;2022-09-03T02:16:08;0.30;;;0.30;;
15841;SDS011;8021;48.022;11.812;2022-09-03T02:18:39;0.30;;;0.30;;
15841;SDS011;8021;48.022;11.812;2022-09-03T02:21:07;0.30;;;0.20;;
15841;SDS011;8021;48.022;11.812;2022-09-03T02:23:37;0.40;;;0.40;;
15841;SDS011;8021;48.022;11.812;2022-09-03T02:26:05;0.30;;;0.30;;
15841;SDS011;8021;48.022;11.812;2022-09-03T02:28:34;0.40;;;0.40;;
15841;SDS011;8021;48.022;11.812;2022-09-03T02:31:02;0.40;;;0.40;;
15841;SDS011;8021;48.022;11.812;2022-09-03T02:33:30;0.30;;;0.25;;
15841;SDS011;8021;48.022;11.812;2022-09-03T02:35:59;0.30;;;0.25;;
15841;SDS011;8021;48.022;11.812;2022-09-03T02:38:27;0.30;;;0.30;;
15841;SDS011;8021;48.022;11.812;2022-09-03T02:40:55;0.35;;;0.35;;
15841;SDS011;8021;48.022;11.812;2022-09-03T02:43:25;0.32;;;0.32;;
15841;SDS011;8021;48.022;11.812;2022-09-03T02:45:54;0.30;;;0.30;;
15841;SDS011;8021;48.022;11.812;2022-09-03T02:48:23;0.30;;;0.30;;
15841;SDS011;8021;48.022;11.812;2022-09-03T02:50:51;0.30;;;0.30;;
15841;SDS011;8021;48.022;11.812;2022-09-03T02:53:20;0.30;;;0.20;;
15841;SDS011;8021;48.022;11.812;2022-09-03T02:55:47;0.40;;;0.40;;
15841;SDS011;8021;48.022;11.812;2022-09-03T02:58:15;0.30;;;0.30;;
15841;SDS011;8021;48.022;11.812;2022-09-03T03:00:42;0.30;;;0.30;;
15841;SDS011;8021;48.022;11.812;2022-09-03T03:03:10;0.30;;;0.30;;
15841;SDS011;8021;48.022;11.812;2022-09-03T03:05:41;0.30;;;0.30;;
15841;SDS011;8021;48.022;11.812;2022-09-03T03:08:09;0.30;;;0.30;;
15841;SDS011;8021;48.022;11.812;2022-09-03T03:10:38;0.30;;;0.30;;
15841;SDS011;8021;48.022;11.812;2022-09-03T03:13:06;0.30;;;0.30;;
15841;SDS011;8021;48.022;11.812;2022-09-03T03:15:34;0.30;;;0.30;;
15841;SDS011;8021;48.022;11.812;2022-09-03T03:18:01;0.30;;;0.30;;
15841;SDS011;8021;48.022;11.812;2022-09-03T03:20:29;0.38;;;0.38;;
15841;SDS011;8021;48.022;11.812;2022-09-03T03:23:00;0.30;;;0.30;;
15841;SDS011;8021;48.022;11.812;2022-09-03T03:25:27;0.30;;;0.20;;
15841;SDS011;8021;48.022;11.812;2022-09-03T03:27:56;0.30;;;0.30;;
15841;SDS011;8021;48.022;11.812;2022-09-03T03:30:24;0.40;;;0.40;;
15841;SDS011;8021;48.022;11.812;2022-09-03T03:32:52;0.30;;;0.30;;
15841;SDS011;8021;48.022;11.812;2022-09-03T03:35:19;0.30;;;0.30;;
15841;SDS011;8021;48.022;11.812;2022-09-03T03:37:47;0.40;;;0.40;;
15841;SDS011;8021;48.022;11.812;2022-09-03T03:40:15;0.40;;;0.40;;
15841;SDS011;8021;48.022;11.812;2022-09-03T03:42:42;0.30;;;0.30;;
15841;SDS011;8021;48.022;11.812;2022-09-03T03:45:11;0.30;;;0.30;;
15841;SDS011;8021;48.022;11.812;2022-09-03T03:47:39;0.30;;;0.30;;
15841;SDS011;8021;48.022;11.812;2022-09-03T03:50:06;0.30;;;0.30;;
15841;SDS011;8021;48.022;11.812;2022-09-03T03:52:36;0.30;;;0.30;;
15841;SDS011;8021;48.022;11.812;2022-09-03T03:55:04;0.30;;;0.30;;
15841;SDS011;8021;48.022;11.812;2022-09-03T03:57:32;0.32;;;0.32;;
15841;SDS011;8021;48.022;11.812;2022-09-03T03:59:59;0.30;;;0.30;;
15841;SDS011;8021;48.022;11.812;2022-09-03T04:02:40;0.32;;;0.32;;
15841;SDS011;8021;48.022;11.812;2022-09-03T04:05:08;0.30;;;0.30;;
15841;SDS011;8021;48.022;11.812;2022-09-03T04:07:36;0.30;;;0.28;;
15841;SDS011;8021;48.022;11.812;2022-09-03T04:10:04;0.35;;;0.35;;
15841;SDS011;8021;48.022;11.812;2022-09-03T04:12:32;0.30;;;0.28;;
15841;SDS011;8021;48.022;11.812;2022-09-03T04:15:00;0.30;;;0.30;;
15841;SDS011;8021;48.022;11.812;2022-09-03T04:17:27;0.30;;;0.30;;
15841;SDS011;8021;48.022;11.812;2022-09-03T04:19:56;0.30;;;0.30;;
15841;SDS011;8021;48.022;11.812;2022-09-03T04:22:24;0.40;;;0.40;;
15841;SDS011;8021;48.022;11.812;2022-09-03T04:24:51;0.30;;;0.30;;
15841;SDS011;8021;48.022;11.812;2022-09-03T04:27:19;0.30;;;0.30;;
15841;SDS011;8021;48.022;11.812;2022-09-03T04:29:46;0.30;;;0.30;;
15841;SDS011;8021;48.022;11.812;2022-09-03T04:32:14;0.30;;;0.30;;
15841;SDS011;8021;48.022;11.812;2022-09-03T04:35:00;0.30;;;0.30;;
15841;SDS011;8021;48.022;11.812;2022-09-03T04:37:27;0.30;;;0.30;;
15841;SDS011;8021;48.022;11.812;2022-09-03T04:39:55;0.30;;;0.30;;
15841;SDS011;8021;48.022;11.812;2022-09-03T04:42:23;0.30;;;0.30;;
15841;SDS011;8021;48.022;11.812;2022-09-03T04:44:50;0.35;;;0.35;;
15841;SDS011;8021;48.022;11.812;2022-09-03T04:47:18;0.30;;;0.30;;
15841;SDS011;8021;48.022;11.812;2022-09-03T04:49:45;0.30;;;0.30;;
15841;SDS011;8021;48.022;11.812;2022-09-03T04:52:14;0.38;;;0.38;;
15841;SDS011;8021;48.022;11.812;2022-09-03T04:54:42;0.30;;;0.30;;
15841;SDS011;8021;48.022;11.812;2022-09-03T04:57:09;0.30;;;0.30;;
15841;SDS011;8021;48.022;11.812;2022-09-03T04:59:37;0.40;;;0.40;;
15841;SDS011;8021;48.022;11.812;2022-09-03T05:02:06;0.30;;;0.30;;
15841;SDS011;8021;48.022;11.812;2022-09-03T05:04:35;0.30;;;0.20;;
15841;SDS011;8021;48.022;11.812;2022-09-03T05:07:02;0.40;;;0.40;;
15841;SDS011;8021;48.022;11.812;2022-09-03T05:09:31;0.40;;;0.40;;
15841;SDS011;8021;48.022;11.812;2022-09-03T05:11:59;0.30;;;0.30;;
15841;SDS011;8021;48.022;11.812;2022-09-03T05:14:27;0.38;;;0.38;;
15841;SDS011;8021;48.022;11.812;2022-09-03T05:16:54;0.30;;;0.20;;
15841;SDS011;8021;48.022;11.812;2022-09-03T05:19:22;0.30;;;0.30;;
15841;SDS011;8021;48.022;11.812;2022-09-03T05:21:50;0.30;;;0.30;;
15841;SDS011;8021;48.022;11.812;2022-09-03T05:24:17;0.30;;;0.30;;
15841;SDS011;8021;48.022;11.812;2022-09-03T05:26:46;0.30;;;0.30;;
15841;SDS011;8021;48.022;11.812;2022-09-03T05:29:14;0.30;;;0.30;;
15841;SDS011;8021;48.022;11.812;2022-09-03T05:31:41;0.30;;;0.30;;
15841;SDS011;8021;48.022;11.812;2022-09-03T05:34:09;0.30;;;0.30;;
15841;SDS011;8021;48.022;11.812;2022-09-03T05:36:43;0.30;;;0.30;;
15841;SDS011;8021;48.022;11.812;2022-09-03T05:39:14;0.30;;;0.20;;
15841;SDS011;8021;48.022;11.812;2022-09-03T05:41:41;0.30;;;0.20;;
15841;SDS011;8021;48.022;11.812;2022-09-03T05:44:10;0.20;;;0.20;;
15841;SDS011;8021;48.022;11.812;2022-09-03T05:46:38;0.20;;;0.20;;
15841;SDS011;8021;48.022;11.812;2022-09-03T05:49:05;0.20;;;0.20;;
15841;SDS011;8021;48.022;11.812;2022-09-03T05:51:34;0.20;;;0.10;;
15841;SDS011;8021;48.022;11.812;2022-09-03T05:54:02;0.10;;;0.10;;
15841;SDS011;8021;48.022;11.812;2022-09-03T05:56:31;0.10;;;0.10;;
15841;SDS011;8021;48.022;11.812;2022-09-03T05:59:01;0.10;;;0.10;;
15841;SDS011;8021;48.022;11.812;2022-09-03T06:01:32;0.10;;;0.10;;
15841;SDS011;8021;48.022;11.812;2022-09-03T06:04:01;0.10;;;0.10;;
15841;SDS011;8021;48.022;11.812;2022-09-03T06:06:29;0.10;;;0.10;;
15841;SDS011;8021;48.022;11.812;2022-09-03T06:08:58;0.10;;;0.10;;
15841;SDS011;8021;48.022;11.812;2022-09-03T06:11:26;0.10;;;0.10;;
15841;SDS011;8021;48.022;11.812;2022-09-03T06:13:54;0.10;;;0.10;;
15841;SDS011;8021;48.022;11.812;2022-09-03T06:16:22;0.10;;;0.10;;
15841;SDS011;8021;48.022;11.812;2022-09-03T06:18:58;0.10;;;0.10;;
15841;SDS011;8021;48.022;11.812;2022-09-03T06:21:26;0.10;;;0.10;;
15841;SDS011;8021;48.022;11.812;2022-09-03T06:23:54;0.10;;;0.10;;
15841;SDS011;8021;48.022;11.812;2022-09-03T06:26:25;0.10;;;0.10;;
15841;SDS011;8021;48.022;11.812;2022-09-03T06:28:53;0.10;;;0.10;;
15841;SDS011;8021;48.022;11.812;2022-09-03T06:31:21;0.10;;;0.10;;
15841;SDS011;8021;48.022;11.812;2022-09-03T06:33:49;0.10;;;0.10;;
15841;SDS011;8021;48.022;11.812;2022-09-03T06:36:21;0.00;;;0.00;;
15841;SDS011;8021;48.022;11.812;2022-09-03T06:38:50;0.10;;;0.10;;
15841;SDS011;8021;48.022;11.812;2022-09-03T06:41:18;0.00;;;0.00;;
15841;SDS011;8021;48.022;11.812;2022-09-03T06:43:50;0.10;;;0.10;;
15841;SDS011;8021;48.022;11.812;2022-09-03T06:46:19;0.10;;;0.10;;
15841;SDS011;8021;48.022;11.812;2022-09-03T06:48:49;0.03;;;0.03;;
15841;SDS011;8021;48.022;11.812;2022-09-03T06:51:17;0.10;;;0.10;;
15841;SDS011;8021;48.022;11.812;2022-09-03T06:53:47;0.10;;;0.10;;
15841;SDS011;8021;48.022;11.812;2022-09-03T06:56:16;0.10;;;0.10;;
15841;SDS011;8021;48.022;11.812;2022-09-03T06:58:45;0.08;;;0.08;;
15841;SDS011;8021;48.022;11.812;2022-09-03T07:01:13;0.10;;;0.05;;
15841;SDS011;8021;48.022;11.812;2022-09-03T07:03:42;0.10;;;0.10;;
15841;SDS011;8021;48.022;11.812;2022-09-03T07:06:11;0.10;;;0.10;;
15841;SDS011;8021;48.022;11.812;2022-09-03T07:08:39;0.20;;;0.20;;
15841;SDS011;8021;48.022;11.812;2022-09-03T07:11:09;0.10;;;0.10;;
15841;SDS011;8021;48.022;11.812;2022-09-03T07:13:37;0.20;;;0.20;;
15841;SDS011;8021;48.022;11.812;2022-09-03T07:16:06;0.10;;;0.10;;
15841;SDS011;8021;48.022;11.812;2022-09-03T07:18:34;0.10;;;0.10;;
15841;SDS011;8021;48.022;11.812;2022-09-03T07:21:02;0.10;;;0.10;;
15841;SDS011;8021;48.022;11.812;2022-09-03T07:23:30;0.20;;;0.20;;
15841;SDS011;8021;48.022;11.812;2022-09-03T07:26:24;0.10;;;0.10;;
15841;SDS011;8021;48.022;11.812;2022-09-03T07:28:53;0.20;;;0.20;;
15841;SDS011;8021;48.022;11.812;2022-09-03T07:31:21;0.10;;;0.10;;
15841;SDS011;8021;48.022;11.812;2022-09-03T07:33:52;0.20;;;0.20;;
15841;SDS011;8021;48.022;11.812;2022-09-03T07:36:21;0.20;;;0.20;;
15841;SDS011;8021;48.022;11.812;2022-09-03T07:38:53;0.10;;;0.10;;
15841;SDS011;8021;48.022;11.812;2022-09-03T07:41:21;0.20;;;0.20;;
15841;SDS011;8021;48.022;11.812;2022-09-03T07:43:55;0.13;;;0.13;;
15841;SDS011;8021;48.022;11.812;2022-09-03T07:46:23;0.10;;;0.10;;
15841;SDS011;8021;48.022;11.812;2022-09-03T07:48:53;0.20;;;0.20;;
15841;SDS011;8021;48.022;11.812;2022-09-03T07:51:23;0.20;;;0.17;;
15841;SDS011;8021;48.022;11.812;2022-09-03T07:53:52;0.10;;;0.10;;
15841;SDS011;8021;48.022;11.812;2022-09-03T07:56:20;0.10;;;0.10;;
15841;SDS011;8021;48.022;11.812;2022-09-03T07:58:48;0.10;;;0.10;;
15841;SDS011;8021;48.022;11.812;2022-09-03T08:01:18;0.17;;;0.17;;
15841;SDS011;8021;48.022;11.812;2022-09-03T08:03:46;0.20;;;0.20;;
15841;SDS011;8021;48.022;11.812;2022-09-03T08:06:14;0.10;;;0.10;;
15841;SDS011;8021;48.022;11.812;2022-09-03T08:08:42;0.10;;;0.10;;
15841;SDS011;8021;48.022;11.812;2022-09-03T08:11:11;0.10;;;0.10;;
15841;SDS011;8021;48.022;11.812;2022-09-03T08:13:38;0.20;;;0.20;;
15841;SDS011;8021;48.022;11.812;2022-09-03T08:16:08;0.10;;;0.10;;
15841;SDS011;8021;48.022;11.812;2022-09-03T08:18:37;0.20;;;0.20;;
15841;SDS011;8021;48.022;11.812;2022-09-03T08:21:05;0.10;;;0.10;;
15841;SDS011;8021;48.022;11.812;2022-09-03T08:23:35;0.10;;;0.10;;
15841;SDS011;8021;48.022;11.812;2022-09-03T08:26:03;0.10;;;0.10;;
15841;SDS011;8021;48.022;11.812;2022-09-03T08:28:30;0.10;;;0.10;;
15841;SDS011;8021;48.022;11.812;2022-09-03T08:31:03;0.10;;;0.10;;
15841;SDS011;8021;48.022;11.812;2022-09-03T08:33:31;0.10;;;0.10;;
15841;SDS011;8021;48.022;11.812;2022-09-03T08:36:07;0.10;;;0.10;;
15841;SDS011;8021;48.022;11.812;2022-09-03T08:38:35;0.10;;;0.10;;
15841;SDS011;8021;48.022;11.812;2022-09-03T08:41:04;0.10;;;0.10;;
15841;SDS011;8021;48.022;11.812;2022-09-03T08:43:34;0.10;;;0.10;;
15841;SDS011;8021;48.022;11.812;2022-09-03T08:46:03;0.10;;;0.10;;
15841;SDS011;8021;48.022;11.812;2022-09-03T08:48:30;0.00;;;0.00;;
15841;SDS011;8021;48.022;11.812;2022-09-03T08:50:59;0.10;;;0.10;;
15841;SDS011;8021;48.022;11.812;2022-09-03T08:53:40;0.10;;;0.10;;
15841;SDS011;8021;48.022;11.812;2022-09-03T08:56:12;0.10;;;0.10;;
15841;SDS011;8021;48.022;11.812;2022-09-03T08:58:41;0.03;;;0.03;;
15841;SDS011;8021;48.022;11.812;2022-09-03T09:01:11;0.00;;;0.00;;
15841;SDS011;8021;48.022;11.812;2022-09-03T09:03:42;0.03;;;0.03;;
15841;SDS011;8021;48.022;11.812;2022-09-03T09:06:17;0.10;;;0.10;;
15841;SDS011;8021;48.022;11.812;2022-09-03T09:08:51;0.10;;;0.10;;
15841;SDS011;8021;48.022;11.812;2022-09-03T09:11:26;0.10;;;0.10;;
15841;SDS011;8021;48.022;11.812;2022-09-03T09:14:00;0.10;;;0.10;;
15841;SDS011;8021;48.022;11.812;2022-09-03T09:16:31;0.03;;;0.00;;
15841;SDS011;8021;48.022;11.812;2022-09-03T09:19:02;0.00;;;0.00;;
15841;SDS011;8021;48.022;11.812;2022-09-03T09:21:36;0.10;;;0.00;;
15841;SDS011;8021;48.022;11.812;2022-09-03T09:24:06;0.10;;;0.10;;
15841;SDS011;8021;48.022;11.812;2022-09-03T09:26:37;0.10;;;0.10;;
15841;SDS011;8021;48.022;11.812;2022-09-03T09:29:07;0.10;;;0.10;;
15841;SDS011;8021;48.022;11.812;2022-09-03T09:31:36;0.10;;;0.10;;
15841;SDS011;8021;48.022;11.812;2022-09-03T09:34:04;0.10;;;0.10;;
15841;SDS011;8021;48.022;11.812;2022-09-03T09:36:33;0.10;;;0.10;;
15841;SDS011;8021;48.022;11.812;2022-09-03T09:39:08;0.10;;;0.10;;
15841;SDS011;8021;48.022;11.812;2022-09-03T09:41:36;0.00;;;0.00;;
15841;SDS011;8021;48.022;11.812;2022-09-03T09:44:03;0.10;;;0.10;;
15841;SDS011;8021;48.022;11.812;2022-09-03T09:46:32;0.10;;;0.10;;
15841;SDS011;8021;48.022;11.812;2022-09-03T09:49:02;0.00;;;0.00;;
15841;SDS011;8021;48.022;11.812;2022-09-03T09:51:34;0.10;;;0.10;;
15841;SDS011;8021;48.022;11.812;2022-09-03T09:54:14;0.00;;;0.00;;
15841;SDS011;8021;48.022;11.812;2022-09-03T09:56:46;0.10;;;0.10;;
15841;SDS011;8021;48.022;11.812;2022-09-03T09:59:24;0.10;;;0.10;;
15841;SDS011;8021;48.022;11.812;2022-09-03T10:02:01;0.10;;;0.10;;
15841;SDS011;8021;48.022;11.812;2022-09-03T10:04:30;0.10;;;0.10;;
15841;SDS011;8021;48.022;11.812;2022-09-03T10:07:00;0.00;;;0.00;;
15841;SDS011;8021;48.022;11.812;2022-09-03T10:09:30;0.10;;;0.10;;
15841;SDS011;8021;48.022;11.812;2022-09-03T10:12:03;0.10;;;0.10;;
15841;SDS011;8021;48.022;11.812;2022-09-03T10:14:36;0.10;;;0.10;;
15841;SDS011;8021;48.022;11.812;2022-09-03T10:17:08;0.10;;;0.10;;
15841;SDS011;8021;48.022;11.812;2022-09-03T10:22:49;0.10;;;0.10;;
15841;SDS011;8021;48.022;11.812;2022-09-03T10:25:23;0.10;;;0.10;;
15841;SDS011;8021;48.022;11.812;2022-09-03T10:27:52;0.10;;;0.10;;
15841;SDS011;8021;48.022;11.812;2022-09-03T10:30:21;0.10;;;0.10;;
15841;SDS011;8021;48.022;11.812;2022-09-03T10:32:51;0.03;;;0.03;;
15841;SDS011;8021;48.022;11.812;2022-09-03T10:35:26;0.00;;;0.00;;
15841;SDS011;8021;48.022;11.812;2022-09-03T10:37:58;0.10;;;0.10;;
15841;SDS011;8021;48.022;11.812;2022-09-03T10:40:30;0.00;;;0.00;;
15841;SDS011;8021;48.022;11.812;2022-09-03T10:43:10;0.00;;;0.00;;
15841;SDS011;8021;48.022;11.812;2022-09-03T10:45:44;0.10;;;0.10;;
15841;SDS011;8021;48.022;11.812;2022-09-03T10:51:03;0.00;;;0.00;;
15841;SDS011;8021;48.022;11.812;2022-09-03T10:53:41;0.00;;;0.00;;
15841;SDS011;8021;48.022;11.812;2022-09-03T10:56:10;0.10;;;0.10;;
15841;SDS011;8021;48.022;11.812;2022-09-03T10:58:47;0.10;;;0.03;;
15841;SDS011;8021;48.022;11.812;2022-09-03T11:01:17;0.08;;;0.08;;
15841;SDS011;8021;48.022;11.812;2022-09-03T11:03:47;0.00;;;0.00;;
15841;SDS011;8021;48.022;11.812;2022-09-03T11:06:16;0.10;;;0.10;;
15841;SDS011;8021;48.022;11.812;2022-09-03T11:08:48;0.10;;;0.10;;
15841;SDS011;8021;48.022;11.812;2022-09-03T11:11:18;0.00;;;0.00;;
15841;SDS011;8021;48.022;11.812;2022-09-03T11:13:50;0.05;;;0.05;;
15841;SDS011;8021;48.022;11.812;2022-09-03T11:16:19;0.00;;;0.00;;
15841;SDS011;8021;48.022;11.812;2022-09-03T11:18:53;0.00;;;0.00;;
15841;SDS011;8021;48.022;11.812;2022-09-03T11:21:22;0.03;;;0.00;;
15841;SDS011;8021;48.022;11.812;2022-09-03T11:23:52;0.10;;;0.10;;
15841;SDS011;8021;48.022;11.812;2022-09-03T11:26:21;0.10;;;0.00;;
15841;SDS011;8021;48.022;11.812;2022-09-03T11:28:53;0.00;;;0.00;;
15841;SDS011;8021;48.022;11.812;2022-09-03T11:31:24;0.10;;;0.10;;
15841;SDS011;8021;48.022;11.812;2022-09-03T11:33:55;0.00;;;0.00;;
15841;SDS011;8021;48.022;11.812;2022-09-03T11:36:27;0.10;;;0.10;;
15841;SDS011;8021;48.022;11.812;2022-09-03T11:38:55;0.17;;;0.10;;
15841;SDS011;8021;48.022;11.812;2022-09-03T11:41:23;0.10;;;0.10;;
15841;SDS011;8021;48.022;11.812;2022-09-03T11:43:53;0.10;;;0.10;;
15841;SDS011;8021;48.022;11.812;2022-09-03T11:46:28;0.00;;;0.00;;
15841;SDS011;8021;48.022;11.812;2022-09-03T11:48:56;0.10;;;0.10;;
15841;SDS011;8021;48.022;11.812;2022-09-03T11:51:35;0.10;;;0.10;;
15841;SDS011;8021;48.022;11.812;2022-09-03T11:54:04;0.10;;;0.10;;
15841;SDS011;8021;48.022;11.812;2022-09-03T11:56:33;0.10;;;0.10;;
15841;SDS011;8021;48.022;11.812;2022-09-03T11:59:04;0.00;;;0.00;;
15841;SDS011;8021;48.022;11.812;2022-09-03T12:01:32;0.00;;;0.00;;
15841;SDS011;8021;48.022;11.812;2022-09-03T12:04:04;0.10;;;0.10;;
15841;SDS011;8021;48.022;11.812;2022-09-03T12:06:48;0.00;;;0.00;;
15841;SDS011;8021;48.022;11.812;2022-09-03T12:09:25;0.10;;;0.10;;
15841;SDS011;8021;48.022;11.812;2022-09-03T12:12:00;0.10;;;0.10;;
15841;SDS011;8021;48.022;11.812;2022-09-03T12:14:34;0.05;;;0.05;;
15841;SDS011;8021;48.022;11.812;2022-09-03T12:17:09;0.10;;;0.10;;
15841;SDS011;8021;48.022;11.812;2022-09-03T12:19:39;0.10;;;0.10;;
15841;SDS011;8021;48.022;11.812;2022-09-03T12:22:11;0.10;;;0.10;;
15841;SDS011;8021;48.022;11.812;2022-09-03T12:24:41;0.03;;;0.03;;
15841;SDS011;8021;48.022;11.812;2022-09-03T12:27:09;0.10;;;0.10;;
15841;SDS011;8021;48.022;11.812;2022-09-03T12:29:48;0.10;;;0.10;;
15841;SDS011;8021;48.022;11.812;2022-09-03T12:32:16;0.10;;;0.10;;
15841;SDS011;8021;48.022;11.812;2022-09-03T12:34:47;0.10;;;0.10;;
15841;SDS011;8021;48.022;11.812;2022-09-03T12:37:19;0.10;;;0.10;;
15841;SDS011;8021;48.022;11.812;2022-09-03T12:40:15;0.10;;;0.10;;
15841;SDS011;8021;48.022;11.812;2022-09-03T12:42:43;0.00;;;0.00;;
15841;SDS011;8021;48.022;11.812;2022-09-03T12:45:13;0.10;;;0.10;;
15841;SDS011;8021;48.022;11.812;2022-09-03T12:47:42;0.10;;;0.10;;
15841;SDS011;8021;48.022;11.812;2022-09-03T12:50:10;0.10;;;0.10;;
15841;SDS011;8021;48.022;11.812;2022-09-03T12:52:40;0.10;;;0.10;;
15841;SDS011;8021;48.022;11.812;2022-09-03T12:55:13;0.10;;;0.10;;
15841;SDS011;8021;48.022;11.812;2022-09-03T12:57:44;0.00;;;0.00;;
15841;SDS011;8021;48.022;11.812;2022-09-03T13:00:15;0.10;;;0.10;;
15841;SDS011;8021;48.022;11.812;2022-09-03T13:02:44;0.10;;;0.10;;
15841;SDS011;8021;48.022;11.812;2022-09-03T13:05:13;0.10;;;0.10;;
15841;SDS011;8021;48.022;11.812;2022-09-03T13:07:44;0.10;;;0.10;;
15841;SDS011;8021;48.022;11.812;2022-09-03T13:10:15;0.10;;;0.10;;
15841;SDS011;8021;48.022;11.812;2022-09-03T13:12:47;0.20;;;0.20;;
15841;SDS011;8021;48.022;11.812;2022-09-03T13:15:20;0.10;;;0.10;;
15841;SDS011;8021;48.022;11.812;2022-09-03T13:17:53;0.10;;;0.10;;
15841;SDS011;8021;48.022;11.812;2022-09-03T13:20:26;0.10;;;0.10;;
15841;SDS011;8021;48.022;11.812;2022-09-03T13:22:58;0.05;;;0.05;;
15841;SDS011;8021;48.022;11.812;2022-09-03T13:25:29;0.17;;;0.17;;
15841;SDS011;8021;48.022;11.812;2022-09-03T13:28:02;0.10;;;0.10;;
15841;SDS011;8021;48.022;11.812;2022-09-03T13:30:37;0.10;;;0.10;;
15841;SDS011;8021;48.022;11.812;2022-09-03T13:33:13;0.10;;;0.10;;
15841;SDS011;8021;48.022;11.812;2022-09-03T13:35:45;0.10;;;0.10;;
15841;SDS011;8021;48.022;11.812;2022-09-03T13:38:17;0.10;;;0.10;;
15841;SDS011;8021;48.022;11.812;2022-09-03T13:40:48;0.10;;;0.10;;
15841;SDS011;8021;48.022;11.812;2022-09-03T13:43:20;0.10;;;0.10;;
15841;SDS011;8021;48.022;11.812;2022-09-03T13:45:51;0.13;;;0.13;;
15841;SDS011;8021;48.022;11.812;2022-09-03T13:48:21;0.10;;;0.10;;
15841;SDS011;8021;48.022;11.812;2022-09-03T13:51:10;0.10;;;0.10;;
15841;SDS011;8021;48.022;11.812;2022-09-03T13:53:43;0.03;;;0.03;;
15841;SDS011;8021;48.022;11.812;2022-09-03T13:56:21;0.10;;;0.10;;
15841;SDS011;8021;48.022;11.812;2022-09-03T13:58:52;0.10;;;0.10;;
15841;SDS011;8021;48.022;11.812;2022-09-03T14:01:24;0.10;;;0.10;;
15841;SDS011;8021;48.022;11.812;2022-09-03T14:03:54;0.10;;;0.10;;
15841;SDS011;8021;48.022;11.812;2022-09-03T14:06:25;0.10;;;0.10;;
15841;SDS011;8021;48.022;11.812;2022-09-03T14:09:03;0.10;;;0.10;;
15841;SDS011;8021;48.022;11.812;2022-09-03T14:11:34;0.20;;;0.20;;
15841;SDS011;8021;48.022;11.812;2022-09-03T14:14:11;0.10;;;0.10;;
15841;SDS011;8021;48.022;11.812;2022-09-03T14:16:43;0.10;;;0.10;;
15841;SDS011;8021;48.022;11.812;2022-09-03T14:19:16;0.10;;;0.10;;
15841;SDS011;8021;48.022;11.812;2022-09-03T14:21:46;0.13;;;0.13;;
15841;SDS011;8021;48.022;11.812;2022-09-03T14:24:19;0.20;;;0.20;;
15841;SDS011;8021;48.022;11.812;2022-09-03T14:26:49;0.20;;;0.20;;
15841;SDS011;8021;48.022;11.812;2022-09-03T14:29:17;0.10;;;0.10;;
15841;SDS011;8021;48.022;11.812;2022-09-03T14:31:52;0.10;;;0.10;;
15841;SDS011;8021;48.022;11.812;2022-09-03T14:34:28;0.10;;;0.10;;
15841;SDS011;8021;48.022;11.812;2022-09-03T14:37:00;0.10;;;0.10;;
15841;SDS011;8021;48.022;11.812;2022-09-03T14:39:32;0.13;;;0.13;;
15841;SDS011;8021;48.022;11.812;2022-09-03T14:44:59;0.15;;;0.15;;
15841;SDS011;8021;48.022;11.812;2022-09-03T14:47:33;0.10;;;0.10;;
15841;SDS011;8021;48.022;11.812;2022-09-03T14:50:06;0.13;;;0.10;;
15841;SDS011;8021;48.022;11.812;2022-09-03T14:55:30;0.20;;;0.20;;
15841;SDS011;8021;48.022;11.812;2022-09-03T14:58:11;0.20;;;0.20;;
15841;SDS011;8021;48.022;11.812;2022-09-03T15:00:45;0.22;;;0.22;;
15841;SDS011;8021;48.022;11.812;2022-09-03T15:03:24;0.20;;;0.20;;
15841;SDS011;8021;48.022;11.812;2022-09-03T15:06:06;0.30;;;0.10;;
15841;SDS011;8021;48.022;11.812;2022-09-03T15:11:20;0.20;;;0.20;;
15841;SDS011;8021;48.022;11.812;2022-09-03T15:13:50;0.20;;;0.20;;
15841;SDS011;8021;48.022;11.812;2022-09-03T15:16:30;0.30;;;0.20;;
15841;SDS011;8021;48.022;11.812;2022-09-03T15:19:11;0.20;;;0.20;;
15841;SDS011;8021;48.022;11.812;2022-09-03T15:21:43;0.20;;;0.20;;
15841;SDS011;8021;48.022;11.812;2022-09-03T15:24:14;0.30;;;0.30;;